Map

Track Data

SID SEASON NUMBER BASIN SUBBASIN NAME ISO_TIME NATURE LAT LON WMO_WIND WMO_PRES WMO_AGENCY TRACK_TYPE DIST2LAND LANDFALL IFLAG USA_AGENCY USA_ATCF_ID USA_LAT USA_LON USA_RECORD USA_STATUS USA_WIND USA_PRES USA_SSHS USA_R34_NE USA_R34_SE USA_R34_SW USA_R34_NW USA_R50_NE USA_R50_SE USA_R50_SW USA_R50_NW USA_R64_NE USA_R64_SE USA_R64_SW USA_R64_NW USA_POCI USA_ROCI USA_RMW USA_EYE TOKYO_LAT TOKYO_LON TOKYO_GRADE TOKYO_WIND TOKYO_PRES TOKYO_R50_DIR TOKYO_R50_LONG TOKYO_R50_SHORT TOKYO_R30_DIR TOKYO_R30_LONG TOKYO_R30_SHORT TOKYO_LAND CMA_LAT CMA_LON CMA_CAT CMA_WIND CMA_PRES HKO_LAT HKO_LON HKO_CAT HKO_WIND HKO_PRES NEWDELHI_LAT NEWDELHI_LON NEWDELHI_GRADE NEWDELHI_WIND NEWDELHI_PRES NEWDELHI_CI NEWDELHI_DP NEWDELHI_POCI REUNION_LAT REUNION_LON REUNION_TYPE REUNION_WIND REUNION_PRES REUNION_TNUM REUNION_CI REUNION_RMW REUNION_R34_NE REUNION_R34_SE REUNION_R34_SW REUNION_R34_NW REUNION_R50_NE REUNION_R50_SE REUNION_R50_SW REUNION_R50_NW REUNION_R64_NE REUNION_R64_SE REUNION_R64_SW REUNION_R64_NW BOM_LAT BOM_LON BOM_TYPE BOM_WIND BOM_PRES BOM_TNUM BOM_CI BOM_RMW BOM_R34_NE BOM_R34_SE BOM_R34_SW BOM_R34_NW BOM_R50_NE BOM_R50_SE BOM_R50_SW BOM_R50_NW BOM_R64_NE BOM_R64_SE BOM_R64_SW BOM_R64_NW BOM_ROCI BOM_POCI BOM_EYE BOM_POS_METHOD BOM_PRES_METHOD NADI_LAT NADI_LON NADI_CAT NADI_WIND NADI_PRES WELLINGTON_LAT WELLINGTON_LON WELLINGTON_WIND WELLINGTON_PRES DS824_LAT DS824_LON DS824_STAGE DS824_WIND DS824_PRES TD9636_LAT TD9636_LON TD9636_STAGE TD9636_WIND TD9636_PRES TD9635_LAT TD9635_LON TD9635_WIND TD9635_PRES TD9635_ROCI NEUMANN_LAT NEUMANN_LON NEUMANN_CLASS NEUMANN_WIND NEUMANN_PRES MLC_LAT MLC_LON MLC_CLASS MLC_WIND MLC_PRES USA_GUST BOM_GUST BOM_GUST_PER REUNION_GUST REUNION_GUST_PER USA_SEAHGT USA_SEARAD_NE USA_SEARAD_SE USA_SEARAD_SW USA_SEARAD_NW STORM_SPEED STORM_DIR
1923300N09083 1923 71 NI BB NOT_NAMED 1923-10-27 00:00:00 TS 9.30000 83.0000 main 202 199 _________O____ -1 9.30000 83.0000 TC 30 7 330
1923300N09083 1923 71 NI BB NOT_NAMED 1923-10-27 03:00:00 TS 9.59003 82.8301 main 202 199 _________PO___ -1 9.73504 82.7451 TC 30 9.30000 83.0000 1 8 332
1923300N09083 1923 71 NI BB NOT_NAMED 1923-10-27 06:00:00 TS 10.0338 82.5990 main 211 206 _________OP___ -1 10.2000 82.5000 TC 30 9.78460 82.7475 1 10 334
1923300N09083 1923 71 NI BB NOT_NAMED 1923-10-27 09:00:00 TS 10.5180 82.3753 main 220 219 _________PP___ -1 10.7075 82.2775 TC 30 10.2653 82.5057 1 10 337
1923300N09083 1923 71 NI BB NOT_NAMED 1923-10-27 12:00:00 TS 10.9692 82.1930 main 244 230 _________OP___ -1 11.2000 82.1000 TC 30 10.7383 82.2860 1 10 340
1923300N09083 1923 71 NI BB NOT_NAMED 1923-10-27 15:00:00 TS 11.4075 82.0424 main 230 200 _________PO___ -1 11.6150 81.9849 TC 30 11.2000 82.1000 1 9 343
1923300N09083 1923 71 NI BB NOT_NAMED 1923-10-27 18:00:00 TS 11.8229 81.9278 main 200 177 _________OP___ -1 12.0000 81.9000 TC 30 11.6458 81.9557 1 9 345
1923300N09083 1923 71 NI BB NOT_NAMED 1923-10-27 21:00:00 TS 12.2449 81.8199 main 177 162 _________PP___ -1 12.4225 81.7925 TC 30 12.0673 81.8472 1 8 347
1923300N09083 1923 71 NI BB NOT_NAMED 1923-10-28 00:00:00 TS 12.6276 81.7326 main 162 158 _________OP___ -1 12.8000 81.7000 TC 30 12.4552 81.7652 1 7 348
1923300N09083 1923 71 NI BB NOT_NAMED 1923-10-28 03:00:00 TS 12.9362 81.6712 main 158 141 _________PO___ -1 13.0725 81.6424 TC 30 12.8000 81.7000 1 6 348
1923300N09083 1923 71 NI BB NOT_NAMED 1923-10-28 06:00:00 TS 13.1986 81.6097 main 141 129 _________OP___ -1 13.3000 81.6000 TC 30 13.0971 81.6193 1 5 347
1923300N09083 1923 71 NI BB NOT_NAMED 1923-10-28 09:00:00 TS 13.4512 81.5450 main 129 129 _________PP___ -1 13.5500 81.5350 TC 30 13.3524 81.5550 1 5 349
1923300N09083 1923 71 NI BB NOT_NAMED 1923-10-28 12:00:00 TS 13.6908 81.5066 main 129 129 _________OP___ -1 13.8000 81.5000 TC 30 13.5815 81.5131 1 5 357
1923300N09083 1923 71 NI BB NOT_NAMED 1923-10-28 15:00:00 TS 13.9288 81.5175 main 130 130 _________PO___ -1 14.0575 81.5350 TC 30 13.8000 81.5000 1 5 7
1923300N09083 1923 71 NI BB NOT_NAMED 1923-10-28 18:00:00 TS 14.1620 81.5606 main 147 147 _________OP___ -1 14.3000 81.6000 TC 30 14.0241 81.5212 1 5 11
1923300N09083 1923 71 NI BB NOT_NAMED 1923-10-28 21:00:00 TS 14.3675 81.6100 main 152 150 _________PP___ -1 14.4925 81.6500 TC 30 14.2425 81.5699 1 4 14
1923300N09083 1923 71 NI BB NOT_NAMED 1923-10-29 00:00:00 TS 14.5823 81.6668 main 150 132 _________OP___ -1 14.7000 81.7000 TC 30 14.4647 81.6337 1 5 13
1923300N09083 1923 71 NI BB NOT_NAMED 1923-10-29 03:00:00 TS 14.8463 81.7250 main 132 116 _________PO___ -1 14.9925 81.7500 TC 30 14.7000 81.7000 1 6 11
1923300N09083 1923 71 NI BB NOT_NAMED 1923-10-29 06:00:00 TS 15.1344 81.7730 main 116 92 _________OP___ -1 15.3000 81.8000 TC 30 14.9687 81.7460 1 6 10
1923300N09083 1923 71 NI BB NOT_NAMED 1923-10-29 09:00:00 TS 15.4037 81.8213 main 92 70 _________PP___ -1 15.5575 81.8500 TC 30 15.2500 81.7926 1 5 10
1923300N09083 1923 71 NI BB NOT_NAMED 1923-10-29 12:00:00 TS 15.6656 81.8714 main 70 49 _________OP___ -1 15.8000 81.9000 TC 30 15.5312 81.8429 1 5 10
1923300N09083 1923 71 NI BB NOT_NAMED 1923-10-29 15:00:00 TS 15.9287 81.9213 main 49 35 _________PO___ -1 16.0575 81.9425 TC 30 15.8000 81.9000 1 5 12
1923300N09083 1923 71 NI BB NOT_NAMED 1923-10-29 18:00:00 TS 16.1554 81.9807 main 24 11 _________OP___ -1 16.3000 82.0000 TC 30 16.0469 81.9662 1 5 17
1923300N09083 1923 71 NI BB NOT_NAMED 1923-10-29 21:00:00 TS 16.3690 82.0599 main 11 0 _________PP___ -1 16.5100 82.0899 TC 30 16.2750 82.0398 1 4 21
1923300N09083 1923 71 NI BB NOT_NAMED 1923-10-30 00:00:00 TS 16.5604 82.1457 main 0 0 _________OP___ -1 16.7000 82.2000 TC 30 16.4907 82.1186 1 4 23
1923300N09083 1923 71 NI BB NOT_NAMED 1923-10-30 03:00:00 NR 16.7000 82.2000 main 0 __________O___ -1 TC 16.7000 82.2000 1 3 19

About IBTrACS Database

This database is a web-friendly format of International Best Track Archive for Climate Stewardship (IBTrACS), a global best track data archive curated by NOAA dating back to 1842.

Updated: 2021-11-26